sensor_id;sensor_type;location;lat;lon;timestamp;pressure;altitude;pressure_sealevel;temperature;humidity
13952;BME280;39535;52.192;9.886;2023-04-02T00:01:17;100085.47;;;5.39;91.28
13952;BME280;39535;52.192;9.886;2023-04-02T00:04:05;100099.31;;;5.36;91.81
13952;BME280;39535;52.192;9.886;2023-04-02T00:06:35;100107.06;;;5.35;91.33
13952;BME280;39535;52.192;9.886;2023-04-02T00:09:29;100101.91;;;5.32;91.24
13952;BME280;39535;52.192;9.886;2023-04-02T00:11:57;100116.59;;;5.28;91.74
13952;BME280;39535;52.192;9.886;2023-04-02T00:14:27;100126.94;;;5.28;91.50
13952;BME280;39535;52.192;9.886;2023-04-02T00:16:56;100122.63;;;5.30;91.17
13952;BME280;39535;52.192;9.886;2023-04-02T00:19:28;100157.13;;;5.32;89.45
13952;BME280;39535;52.192;9.886;2023-04-02T00:21:57;100174.38;;;5.21;90.02
13952;BME280;39535;52.192;9.886;2023-04-02T00:24:25;100195.09;;;5.16;88.64
13952;BME280;39535;52.192;9.886;2023-04-02T00:26:53;100203.72;;;5.11;89.78
13952;BME280;39535;52.192;9.886;2023-04-02T00:29:20;100201.13;;;5.09;90.02
13952;BME280;39535;52.192;9.886;2023-04-02T00:31:48;100216.66;;;4.95;89.28
13952;BME280;39535;52.192;9.886;2023-04-02T00:34:18;100221.84;;;4.88;89.37
13952;BME280;39535;52.192;9.886;2023-04-02T00:36:45;100227.84;;;4.81;89.69
13952;BME280;39535;52.192;9.886;2023-04-02T00:39:18;100229.59;;;4.88;89.06
13952;BME280;39535;52.192;9.886;2023-04-02T00:41:46;100252.00;;;4.95;88.16
13952;BME280;39535;52.192;9.886;2023-04-02T00:44:15;100267.50;;;4.93;87.83
13952;BME280;39535;52.192;9.886;2023-04-02T00:46:46;100270.09;;;4.90;87.93
13952;BME280;39535;52.192;9.886;2023-04-02T00:49:19;100277.00;;;4.87;88.34
13952;BME280;39535;52.192;9.886;2023-04-02T00:51:50;100301.16;;;4.90;86.91
13952;BME280;39535;52.192;9.886;2023-04-02T00:54:20;100327.00;;;4.89;86.62
13952;BME280;39535;52.192;9.886;2023-04-02T00:56:52;100320.97;;;4.88;86.53
13952;BME280;39535;52.192;9.886;2023-04-02T00:59:26;100345.94;;;4.83;87.23
13952;BME280;39535;52.192;9.886;2023-04-02T01:01:56;100349.41;;;4.82;85.85
13952;BME280;39535;52.192;9.886;2023-04-02T01:04:31;100359.72;;;4.76;86.84
13952;BME280;39535;52.192;9.886;2023-04-02T01:07:01;100361.44;;;4.77;86.60
13952;BME280;39535;52.192;9.886;2023-04-02T01:09:45;100361.41;;;4.69;86.22
13952;BME280;39535;52.192;9.886;2023-04-02T01:12:28;100360.56;;;4.73;86.54
13952;BME280;39535;52.192;9.886;2023-04-02T01:15:05;100365.75;;;4.72;86.85
13952;BME280;39535;52.192;9.886;2023-04-02T01:17:58;100372.59;;;4.65;85.85
13952;BME280;39535;52.192;9.886;2023-04-02T01:20:47;100373.47;;;4.63;86.30
13952;BME280;39535;52.192;9.886;2023-04-02T01:23:23;100389.81;;;4.58;86.33
13952;BME280;39535;52.192;9.886;2023-04-02T01:26:00;100394.16;;;4.64;86.47
13952;BME280;39535;52.192;9.886;2023-04-02T01:28:33;100390.69;;;4.64;85.83
13952;BME280;39535;52.192;9.886;2023-04-02T01:31:03;100407.00;;;4.53;85.59
13952;BME280;39535;52.192;9.886;2023-04-02T01:33:32;100425.97;;;4.55;84.31
13952;BME280;39535;52.192;9.886;2023-04-02T01:36:04;100452.72;;;4.56;84.64
13952;BME280;39535;52.192;9.886;2023-04-02T01:38:37;100463.91;;;4.60;83.99
13952;BME280;39535;52.192;9.886;2023-04-02T01:41:09;100482.00;;;4.60;84.00
13952;BME280;39535;52.192;9.886;2023-04-02T01:43:43;100508.72;;;4.57;83.26
13952;BME280;39535;52.192;9.886;2023-04-02T01:46:27;100521.63;;;4.54;83.71
13952;BME280;39535;52.192;9.886;2023-04-02T01:48:54;100525.03;;;4.48;83.20
13952;BME280;39535;52.192;9.886;2023-04-02T01:51:26;100526.75;;;4.49;83.75
13952;BME280;39535;52.192;9.886;2023-04-02T01:53:53;100538.78;;;4.44;83.65
13952;BME280;39535;52.192;9.886;2023-04-02T01:56:19;100537.06;;;4.45;83.03
13952;BME280;39535;52.192;9.886;2023-04-02T01:58:47;100550.88;;;4.47;83.03
13952;BME280;39535;52.192;9.886;2023-04-02T02:01:15;100560.28;;;4.38;82.79
13952;BME280;39535;52.192;9.886;2023-04-02T02:03:44;100557.63;;;4.31;83.53
13952;BME280;39535;52.192;9.886;2023-04-02T02:06:12;100547.25;;;4.28;83.86
13952;BME280;39535;52.192;9.886;2023-04-02T02:08:44;100554.88;;;4.14;84.49
13952;BME280;39535;52.192;9.886;2023-04-02T02:11:15;100547.97;;;4.11;83.47
13952;BME280;39535;52.192;9.886;2023-04-02T02:13:45;100558.28;;;4.07;83.25
13952;BME280;39535;52.192;9.886;2023-04-02T02:16:15;100556.53;;;4.06;83.74
13952;BME280;39535;52.192;9.886;2023-04-02T02:18:45;100584.13;;;4.11;82.91
13952;BME280;39535;52.192;9.886;2023-04-02T02:21:20;100584.16;;;4.13;82.38
13952;BME280;39535;52.192;9.886;2023-04-02T02:23:50;100600.56;;;4.18;81.86
13952;BME280;39535;52.192;9.886;2023-04-02T02:26:18;100630.56;;;4.04;81.79
13952;BME280;39535;52.192;9.886;2023-04-02T02:28:49;100640.03;;;4.06;81.75
13952;BME280;39535;52.192;9.886;2023-04-02T02:31:20;100645.25;;;4.09;81.36
13952;BME280;39535;52.192;9.886;2023-04-02T02:33:57;100671.06;;;4.08;80.54
13952;BME280;39535;52.192;9.886;2023-04-02T02:36:28;100688.16;;;3.95;81.11
13952;BME280;39535;52.192;9.886;2023-04-02T02:39:00;100683.81;;;3.94;81.97
13952;BME280;39535;52.192;9.886;2023-04-02T02:41:34;100677.03;;;4.01;82.11
13952;BME280;39535;52.192;9.886;2023-04-02T02:44:10;100682.28;;;4.10;81.50
13952;BME280;39535;52.192;9.886;2023-04-02T02:46:42;100693.53;;;4.13;80.51
13952;BME280;39535;52.192;9.886;2023-04-02T02:49:13;100720.13;;;4.08;80.42
13952;BME280;39535;52.192;9.886;2023-04-02T02:51:43;100724.34;;;4.00;80.83
13952;BME280;39535;52.192;9.886;2023-04-02T02:54:13;100726.03;;;3.96;80.16
13952;BME280;39535;52.192;9.886;2023-04-02T02:56:44;100745.06;;;4.03;79.88
13952;BME280;39535;52.192;9.886;2023-04-02T02:59:14;100737.22;;;3.95;81.51
13952;BME280;39535;52.192;9.886;2023-04-02T03:01:43;100729.53;;;4.01;80.67
13952;BME280;39535;52.192;9.886;2023-04-02T03:04:11;100751.94;;;4.01;80.32
13952;BME280;39535;52.192;9.886;2023-04-02T03:06:38;100765.66;;;3.96;79.79
13952;BME280;39535;52.192;9.886;2023-04-02T03:09:12;100771.53;;;3.88;81.00
13952;BME280;39535;52.192;9.886;2023-04-02T03:11:44;100764.56;;;3.82;80.37
13952;BME280;39535;52.192;9.886;2023-04-02T03:14:21;100782.72;;;3.85;80.44
13952;BME280;39535;52.192;9.886;2023-04-02T03:16:51;100785.22;;;3.81;80.21
13952;BME280;39535;52.192;9.886;2023-04-02T03:19:28;100793.09;;;3.90;79.44
13952;BME280;39535;52.192;9.886;2023-04-02T03:22:00;100799.16;;;3.92;79.93
13952;BME280;39535;52.192;9.886;2023-04-02T03:24:35;100810.34;;;3.94;80.28
13952;BME280;39535;52.192;9.886;2023-04-02T03:27:10;100807.78;;;3.94;80.25
13952;BME280;39535;52.192;9.886;2023-04-02T03:29:40;100816.41;;;3.94;79.56
13952;BME280;39535;52.192;9.886;2023-04-02T03:32:14;100827.56;;;3.92;79.51
13952;BME280;39535;52.192;9.886;2023-04-02T03:34:45;100838.78;;;3.94;78.61
13952;BME280;39535;52.192;9.886;2023-04-02T03:37:15;100855.16;;;3.96;78.75
13952;BME280;39535;52.192;9.886;2023-04-02T03:39:47;100869.88;;;4.02;78.25
13952;BME280;39535;52.192;9.886;2023-04-02T03:42:20;100874.00;;;3.90;79.06
13952;BME280;39535;52.192;9.886;2023-04-02T03:44:50;100873.22;;;3.94;78.66
13952;BME280;39535;52.192;9.886;2023-04-02T03:47:25;100886.91;;;3.90;78.72
13952;BME280;39535;52.192;9.886;2023-04-02T03:49:59;100892.19;;;3.95;78.90
13952;BME280;39535;52.192;9.886;2023-04-02T03:52:28;100893.03;;;3.95;78.07
13952;BME280;39535;52.192;9.886;2023-04-02T03:54:56;100899.84;;;3.90;78.74
13952;BME280;39535;52.192;9.886;2023-04-02T03:57:28;100907.63;;;3.93;78.51
13952;BME280;39535;52.192;9.886;2023-04-02T04:00:00;100918.03;;;3.96;78.11
13952;BME280;39535;52.192;9.886;2023-04-02T04:02:39;100928.41;;;4.00;77.44
13952;BME280;39535;52.192;9.886;2023-04-02T04:05:19;100953.22;;;3.91;77.94
13952;BME280;39535;52.192;9.886;2023-04-02T04:07:50;100950.66;;;3.91;77.93
13952;BME280;39535;52.192;9.886;2023-04-02T04:10:20;100972.13;;;3.89;77.57
13952;BME280;39535;52.192;9.886;2023-04-02T04:12:49;100970.34;;;3.86;77.26
13952;BME280;39535;52.192;9.886;2023-04-02T04:15:21;100979.78;;;3.83;77.41
13952;BME280;39535;52.192;9.886;2023-04-02T04:17:53;100987.56;;;3.86;77.28
13952;BME280;39535;52.192;9.886;2023-04-02T04:20:30;100999.56;;;3.82;76.75
13952;BME280;39535;52.192;9.886;2023-04-02T04:23:15;101015.00;;;3.79;77.50
13952;BME280;39535;52.192;9.886;2023-04-02T04:25:42;101012.34;;;3.76;77.11
13952;BME280;39535;52.192;9.886;2023-04-02T04:28:14;101014.97;;;3.77;77.16
13952;BME280;39535;52.192;9.886;2023-04-02T04:30:49;101015.00;;;3.79;77.84
13952;BME280;39535;52.192;9.886;2023-04-02T04:33:21;101013.38;;;3.86;76.85
13952;BME280;39535;52.192;9.886;2023-04-02T04:35:53;101034.16;;;3.92;76.62
13952;BME280;39535;52.192;9.886;2023-04-02T04:38:28;101053.88;;;3.88;76.77
13952;BME280;39535;52.192;9.886;2023-04-02T04:41:00;101058.13;;;3.83;77.02
13952;BME280;39535;52.192;9.886;2023-04-02T04:43:33;101052.91;;;3.82;77.11
13952;BME280;39535;52.192;9.886;2023-04-02T04:46:05;101058.16;;;3.86;76.35
13952;BME280;39535;52.192;9.886;2023-04-02T04:48:35;101066.75;;;3.85;77.14
13952;BME280;39535;52.192;9.886;2023-04-02T04:51:07;101065.03;;;3.86;77.29
13952;BME280;39535;52.192;9.886;2023-04-02T04:53:45;101065.03;;;3.86;76.49
13952;BME280;39535;52.192;9.886;2023-04-02T04:56:15;101078.81;;;3.85;76.28
13952;BME280;39535;52.192;9.886;2023-04-02T04:58:47;101092.59;;;3.85;76.05
13952;BME280;39535;52.192;9.886;2023-04-02T05:01:18;101102.94;;;3.88;75.67
13952;BME280;39535;52.192;9.886;2023-04-02T05:03:48;101118.44;;;3.87;75.64
13952;BME280;39535;52.192;9.886;2023-04-02T05:06:23;101139.88;;;3.83;75.82
13952;BME280;39535;52.192;9.886;2023-04-02T05:08:54;101136.47;;;3.85;75.46
13952;BME280;39535;52.192;9.886;2023-04-02T05:11:28;101144.28;;;3.88;75.70
13952;BME280;39535;52.192;9.886;2023-04-02T05:13:58;101145.09;;;3.86;76.25
13952;BME280;39535;52.192;9.886;2023-04-02T05:16:30;101144.16;;;3.82;74.61
13952;BME280;39535;52.192;9.886;2023-04-02T05:19:04;101175.22;;;3.85;74.90
13952;BME280;39535;52.192;9.886;2023-04-02T05:21:39;101188.91;;;3.81;75.92
13952;BME280;39535;52.192;9.886;2023-04-02T05:24:27;101163.09;;;3.81;76.04
13952;BME280;39535;52.192;9.886;2023-04-02T05:27:00;101181.00;;;3.73;75.42
13952;BME280;39535;52.192;9.886;2023-04-02T05:29:32;101201.53;;;3.67;75.04
13952;BME280;39535;52.192;9.886;2023-04-02T05:32:03;101196.41;;;3.70;74.86
13952;BME280;39535;52.192;9.886;2023-04-02T05:34:33;101206.72;;;3.69;75.34
13952;BME280;39535;52.192;9.886;2023-04-02T05:37:03;101196.56;;;3.78;75.03
13952;BME280;39535;52.192;9.886;2023-04-02T05:39:30;101200.16;;;3.83;74.92
13952;BME280;39535;52.192;9.886;2023-04-02T05:41:59;101215.69;;;3.86;75.26
13952;BME280;39535;52.192;9.886;2023-04-02T05:44:28;101204.53;;;3.87;74.83
13952;BME280;39535;52.192;9.886;2023-04-02T05:46:58;101220.19;;;3.95;74.62
13952;BME280;39535;52.192;9.886;2023-04-02T05:49:29;101239.78;;;3.85;74.97
13952;BME280;39535;52.192;9.886;2023-04-02T05:52:01;101232.78;;;3.80;75.35
13952;BME280;39535;52.192;9.886;2023-04-02T05:54:34;101239.78;;;3.85;75.25
13952;BME280;39535;52.192;9.886;2023-04-02T05:57:06;101236.34;;;3.85;74.76
13952;BME280;39535;52.192;9.886;2023-04-02T05:59:37;101251.63;;;3.75;74.08
13952;BME280;39535;52.192;9.886;2023-04-02T06:02:11;101261.09;;;3.76;74.74
13952;BME280;39535;52.192;9.886;2023-04-02T06:04:43;101268.25;;;3.88;74.35
13952;BME280;39535;52.192;9.886;2023-04-02T06:07:15;101281.25;;;3.91;74.65
13952;BME280;39535;52.192;9.886;2023-04-02T06:09:46;101285.72;;;4.00;74.36
13952;BME280;39535;52.192;9.886;2023-04-02T06:12:21;101282.41;;;4.06;74.59
13952;BME280;39535;52.192;9.886;2023-04-02T06:14:50;101283.34;;;4.09;73.93
13952;BME280;39535;52.192;9.886;2023-04-02T06:17:19;101296.28;;;4.11;74.27
13952;BME280;39535;52.192;9.886;2023-04-02T06:19:46;101298.88;;;4.11;74.16
13952;BME280;39535;52.192;9.886;2023-04-02T06:22:21;101307.50;;;4.11;73.33
13952;BME280;39535;52.192;9.886;2023-04-02T06:24:54;101332.19;;;3.98;73.69
13952;BME280;39535;52.192;9.886;2023-04-02T06:27:24;101353.66;;;3.96;72.75
13952;BME280;39535;52.192;9.886;2023-04-02T06:29:54;101352.91;;;4.02;72.96
13952;BME280;39535;52.192;9.886;2023-04-02T06:32:23;101372.00;;;4.07;73.19
13952;BME280;39535;52.192;9.886;2023-04-02T06:34:51;101368.72;;;4.15;72.92
13952;BME280;39535;52.192;9.886;2023-04-02T06:37:22;101392.66;;;4.08;73.74
13952;BME280;39535;52.192;9.886;2023-04-02T06:39:52;101381.66;;;4.15;73.33
13952;BME280;39535;52.192;9.886;2023-04-02T06:42:21;101385.22;;;4.21;73.31
13952;BME280;39535;52.192;9.886;2023-04-02T06:44:50;101386.19;;;4.26;73.87
13952;BME280;39535;52.192;9.886;2023-04-02T06:47:23;101378.38;;;4.23;73.73
13952;BME280;39535;52.192;9.886;2023-04-02T06:49:56;101379.25;;;4.23;72.85
13952;BME280;39535;52.192;9.886;2023-04-02T06:52:27;101398.97;;;4.20;73.26
13952;BME280;39535;52.192;9.886;2023-04-02T06:54:56;101398.06;;;4.17;74.69
13952;BME280;39535;52.192;9.886;2023-04-02T06:57:22;101388.59;;;4.18;73.64
13952;BME280;39535;52.192;9.886;2023-04-02T06:59:49;101399.00;;;4.21;74.08
13952;BME280;39535;52.192;9.886;2023-04-02T07:02:23;101404.31;;;4.27;73.71
13952;BME280;39535;52.192;9.886;2023-04-02T07:04:55;101402.59;;;4.28;73.25
13952;BME280;39535;52.192;9.886;2023-04-02T07:07:23;101414.66;;;4.27;72.50
13952;BME280;39535;52.192;9.886;2023-04-02T07:09:50;101434.38;;;4.24;73.17
13952;BME280;39535;52.192;9.886;2023-04-02T07:12:21;101445.34;;;4.13;73.32
13952;BME280;39535;52.192;9.886;2023-04-02T07:14:48;101445.38;;;4.15;73.39
13952;BME280;39535;52.192;9.886;2023-04-02T07:17:15;101447.25;;;4.21;72.78
13952;BME280;39535;52.192;9.886;2023-04-02T07:19:42;101463.84;;;4.30;72.28
13952;BME280;39535;52.192;9.886;2023-04-02T07:22:09;101484.50;;;4.30;72.24
13952;BME280;39535;52.192;9.886;2023-04-02T07:24:36;101486.19;;;4.30;72.26
13952;BME280;39535;52.192;9.886;2023-04-02T07:27:02;101492.38;;;4.35;71.75
13952;BME280;39535;52.192;9.886;2023-04-02T07:29:30;101509.59;;;4.34;72.05
13952;BME280;39535;52.192;9.886;2023-04-02T07:31:57;101516.31;;;4.28;72.11
13952;BME280;39535;52.192;9.886;2023-04-02T07:34:23;101532.75;;;4.31;71.72
13952;BME280;39535;52.192;9.886;2023-04-02T07:36:50;101544.94;;;4.35;71.07
13952;BME280;39535;52.192;9.886;2023-04-02T07:39:16;101563.16;;;4.42;70.55
13952;BME280;39535;52.192;9.886;2023-04-02T07:41:50;101566.75;;;4.47;71.47
13952;BME280;39535;52.192;9.886;2023-04-02T07:44:17;101556.25;;;4.41;71.81
13952;BME280;39535;52.192;9.886;2023-04-02T07:46:45;101553.72;;;4.42;71.88
13952;BME280;39535;52.192;9.886;2023-04-02T07:49:11;101552.16;;;4.49;71.67
13952;BME280;39535;52.192;9.886;2023-04-02T07:51:38;101564.22;;;4.48;72.06
13952;BME280;39535;52.192;9.886;2023-04-02T07:54:04;101556.63;;;4.56;72.10
13952;BME280;39535;52.192;9.886;2023-04-02T07:56:34;101561.03;;;4.60;71.63
13952;BME280;39535;52.192;9.886;2023-04-02T07:59:01;101567.03;;;4.59;71.13
13952;BME280;39535;52.192;9.886;2023-04-02T08:01:28;101580.00;;;4.61;70.31
13952;BME280;39535;52.192;9.886;2023-04-02T08:04:01;101603.19;;;4.56;70.58
13952;BME280;39535;52.192;9.886;2023-04-02T08:06:28;101619.25;;;4.44;71.20
13952;BME280;39535;52.192;9.886;2023-04-02T08:08:55;101604.78;;;4.51;70.90
13952;BME280;39535;52.192;9.886;2023-04-02T08:11:22;101625.50;;;4.52;70.39
13952;BME280;39535;52.192;9.886;2023-04-02T08:13:48;101639.25;;;4.51;70.89
13952;BME280;39535;52.192;9.886;2023-04-02T08:16:15;101627.38;;;4.60;70.79
13952;BME280;39535;52.192;9.886;2023-04-02T08:18:41;101631.63;;;4.56;71.87
13952;BME280;39535;52.192;9.886;2023-04-02T08:21:09;101626.63;;;4.64;71.87
13952;BME280;39535;52.192;9.886;2023-04-02T08:23:36;101626.03;;;4.75;70.65
13952;BME280;39535;52.192;9.886;2023-04-02T08:26:04;101643.91;;;4.65;71.60
13952;BME280;39535;52.192;9.886;2023-04-02T08:28:30;101645.88;;;4.75;70.48
13952;BME280;39535;52.192;9.886;2023-04-02T08:30:57;101644.16;;;4.75;71.08
13952;BME280;39535;52.192;9.886;2023-04-02T08:33:23;101661.53;;;4.81;69.94
13952;BME280;39535;52.192;9.886;2023-04-02T08:35:50;101676.09;;;4.76;70.17
13952;BME280;39535;52.192;9.886;2023-04-02T08:38:19;101682.03;;;4.73;70.13
13952;BME280;39535;52.192;9.886;2023-04-02T08:40:48;101689.16;;;4.82;69.96
13952;BME280;39535;52.192;9.886;2023-04-02T08:43:34;101695.13;;;4.80;71.38
13952;BME280;39535;52.192;9.886;2023-04-02T08:46:08;101684.25;;;4.93;71.01
13952;BME280;39535;52.192;9.886;2023-04-02T08:48:38;101676.56;;;4.96;71.63
13952;BME280;39535;52.192;9.886;2023-04-02T08:51:06;101677.34;;;4.93;70.99
13952;BME280;39535;52.192;9.886;2023-04-02T08:53:36;101673.75;;;4.87;72.06
13952;BME280;39535;52.192;9.886;2023-04-02T08:56:08;101666.09;;;4.91;71.75
13952;BME280;39535;52.192;9.886;2023-04-02T08:58:42;101661.88;;;4.95;71.87
13952;BME280;39535;52.192;9.886;2023-04-02T09:01:17;101654.88;;;4.91;71.88
13952;BME280;39535;52.192;9.886;2023-04-02T09:03:48;101673.03;;;4.92;70.88
13952;BME280;39535;52.192;9.886;2023-04-02T09:06:18;101663.44;;;4.88;72.19
13952;BME280;39535;52.192;9.886;2023-04-02T09:08:48;101673.97;;;4.96;71.16
13952;BME280;39535;52.192;9.886;2023-04-02T09:11:22;101680.13;;;5.01;71.79
13952;BME280;39535;52.192;9.886;2023-04-02T09:13:53;101694.88;;;5.04;71.34
13952;BME280;39535;52.192;9.886;2023-04-02T09:16:29;101699.97;;;5.01;72.13
13952;BME280;39535;52.192;9.886;2023-04-02T09:18:59;101698.09;;;4.95;72.74
13952;BME280;39535;52.192;9.886;2023-04-02T09:21:40;101671.63;;;5.07;72.14
13952;BME280;39535;52.192;9.886;2023-04-02T09:24:11;101676.94;;;5.13;71.92
13952;BME280;39535;52.192;9.886;2023-04-02T09:26:39;101681.41;;;5.18;71.87
13952;BME280;39535;52.192;9.886;2023-04-02T09:29:24;101703.94;;;5.23;70.84
13952;BME280;39535;52.192;9.886;2023-04-02T09:32:03;101724.00;;;5.33;70.83
13952;BME280;39535;52.192;9.886;2023-04-02T09:34:35;101729.03;;;5.25;71.84
13952;BME280;39535;52.192;9.886;2023-04-02T09:37:07;101723.81;;;5.24;71.63
13952;BME280;39535;52.192;9.886;2023-04-02T09:39:35;101729.84;;;5.24;70.93
13952;BME280;39535;52.192;9.886;2023-04-02T09:42:05;101736.03;;;5.31;69.46
13952;BME280;39535;52.192;9.886;2023-04-02T09:44:33;101760.28;;;5.34;70.30
13952;BME280;39535;52.192;9.886;2023-04-02T09:47:01;101759.28;;;5.28;71.51
13952;BME280;39535;52.192;9.886;2023-04-02T09:49:30;101766.38;;;5.36;70.75
13952;BME280;39535;52.192;9.886;2023-04-02T09:55:15;101757.06;;;5.43;71.41
13952;BME280;39535;52.192;9.886;2023-04-02T09:57:43;101785.59;;;5.46;70.85
13952;BME280;39535;52.192;9.886;2023-04-02T10:00:17;101796.91;;;5.50;70.69
13952;BME280;39535;52.192;9.886;2023-04-02T10:02:46;101795.16;;;5.49;69.85
13952;BME280;39535;52.192;9.886;2023-04-02T10:05:24;101816.03;;;5.55;69.49
13952;BME280;39535;52.192;9.886;2023-04-02T10:07:52;101843.53;;;5.50;69.54
13952;BME280;39535;52.192;9.886;2023-04-02T10:10:23;101844.50;;;5.53;70.20
13952;BME280;39535;52.192;9.886;2023-04-02T10:12:58;101853.13;;;5.54;69.42
13952;BME280;39535;52.192;9.886;2023-04-02T10:15:29;101855.75;;;5.55;67.83
13952;BME280;39535;52.192;9.886;2023-04-02T10:18:02;101886.00;;;5.56;68.41
13952;BME280;39535;52.192;9.886;2023-04-02T10:20:32;101888.56;;;5.55;69.25
13952;BME280;39535;52.192;9.886;2023-04-02T10:23:01;101900.56;;;5.51;67.95
13952;BME280;39535;52.192;9.886;2023-04-02T10:25:31;101906.44;;;5.46;68.80
13952;BME280;39535;52.192;9.886;2023-04-02T10:28:10;101912.50;;;5.46;68.72
13952;BME280;39535;52.192;9.886;2023-04-02T10:30:44;101911.13;;;5.59;68.13
13952;BME280;39535;52.192;9.886;2023-04-02T10:33:21;101933.78;;;5.68;65.81
13952;BME280;39535;52.192;9.886;2023-04-02T10:35:56;101975.88;;;5.59;67.94
13952;BME280;39535;52.192;9.886;2023-04-02T10:38:34;101968.25;;;5.65;67.51
13952;BME280;39535;52.192;9.886;2023-04-02T10:41:20;101961.84;;;5.86;67.02
13952;BME280;39535;52.192;9.886;2023-04-02T10:44:24;101981.13;;;5.95;65.94
13952;BME280;39535;52.192;9.886;2023-04-02T10:47:00;102003.09;;;6.10;65.18
13952;BME280;39535;52.192;9.886;2023-04-02T10:49:37;102056.72;;;6.12;64.77
13952;BME280;39535;52.192;9.886;2023-04-02T10:52:08;102094.69;;;6.10;64.95
13952;BME280;39535;52.192;9.886;2023-04-02T10:54:44;102098.19;;;6.11;64.42
13952;BME280;39535;52.192;9.886;2023-04-02T10:57:21;102113.69;;;6.09;65.63
13952;BME280;39535;52.192;9.886;2023-04-02T10:59:54;102098.97;;;6.08;66.30
13952;BME280;39535;52.192;9.886;2023-04-02T11:02:33;102095.03;;;6.24;64.43
13952;BME280;39535;52.192;9.886;2023-04-02T11:05:09;102114.97;;;6.25;62.77
13952;BME280;39535;52.192;9.886;2023-04-02T11:07:48;102164.84;;;6.15;63.25
13952;BME280;39535;52.192;9.886;2023-04-02T11:10:19;102178.66;;;6.15;62.55
13952;BME280;39535;52.192;9.886;2023-04-02T11:12:51;102185.53;;;6.13;65.13
13952;BME280;39535;52.192;9.886;2023-04-02T11:15:20;102156.47;;;6.25;64.19
13952;BME280;39535;52.192;9.886;2023-04-02T11:17:47;102171.53;;;6.40;65.16
13952;BME280;39535;52.192;9.886;2023-04-02T11:23:21;102146.72;;;6.50;63.03
13952;BME280;39535;52.192;9.886;2023-04-02T11:25:51;102159.25;;;6.68;63.51
13952;BME280;39535;52.192;9.886;2023-04-02T11:28:39;102165.84;;;6.88;62.76
13952;BME280;39535;52.192;9.886;2023-04-02T11:31:06;102192.91;;;6.98;61.67
13952;BME280;39535;52.192;9.886;2023-04-02T11:33:38;102218.19;;;7.07;60.19
13952;BME280;39535;52.192;9.886;2023-04-02T11:39:08;102299.22;;;6.93;58.78
13952;BME280;39535;52.192;9.886;2023-04-02T11:42:00;102325.66;;;6.79;61.52
13952;BME280;39535;52.192;9.886;2023-04-02T11:44:29;102305.84;;;6.82;60.57
13952;BME280;39535;52.192;9.886;2023-04-02T11:47:16;102320.19;;;6.69;62.26
13952;BME280;39535;52.192;9.886;2023-04-02T11:50:00;102293.25;;;6.64;62.34
13952;BME280;39535;52.192;9.886;2023-04-02T11:52:34;102266.72;;;6.74;62.75
13952;BME280;39535;52.192;9.886;2023-04-02T11:55:29;102269.25;;;7.06;59.83
13952;BME280;39535;52.192;9.886;2023-04-02T11:58:17;102300.81;;;7.23;59.99
13952;BME280;39535;52.192;9.886;2023-04-02T12:04:09;102346.94;;;7.32;59.15
13952;BME280;39535;52.192;9.886;2023-04-02T12:06:47;102368.19;;;7.50;59.04
13952;BME280;39535;52.192;9.886;2023-04-02T12:09:19;102387.78;;;7.72;57.85
13952;BME280;39535;52.192;9.886;2023-04-02T12:11:48;102399.59;;;7.96;57.65
13952;BME280;39535;52.192;9.886;2023-04-02T12:14:32;102430.03;;;8.00;55.52
13952;BME280;39535;52.192;9.886;2023-04-02T12:17:16;102487.72;;;7.84;56.66
13952;BME280;39535;52.192;9.886;2023-04-02T12:19:46;102493.53;;;7.73;56.75
13952;BME280;39535;52.192;9.886;2023-04-02T12:22:17;102509.59;;;7.59;57.45
13952;BME280;39535;52.192;9.886;2023-04-02T12:24:46;102498.31;;;7.58;57.81
13952;BME280;39535;52.192;9.886;2023-04-02T12:27:17;102480.69;;;7.46;56.60
13952;BME280;39535;52.192;9.886;2023-04-02T12:29:47;102503.03;;;7.40;58.27
13952;BME280;39535;52.192;9.886;2023-04-02T12:32:19;102476.28;;;7.44;58.33
13952;BME280;39535;52.192;9.886;2023-04-02T12:34:50;102471.03;;;7.42;57.86
13952;BME280;39535;52.192;9.886;2023-04-02T12:37:20;102449.88;;;7.95;56.93
13952;BME280;39535;52.192;9.886;2023-04-02T12:39:52;102467.13;;;9.07;55.97
13952;BME280;39535;52.192;9.886;2023-04-02T12:42:25;102428.19;;;10.79;51.60
13952;BME280;39535;52.192;9.886;2023-04-02T12:44:52;102528.22;;;12.32;47.53
13952;BME280;39535;52.192;9.886;2023-04-02T12:47:20;102657.34;;;13.33;47.21
13952;BME280;39535;52.192;9.886;2023-04-02T12:49:46;102720.69;;;14.25;43.27
13952;BME280;39535;52.192;9.886;2023-04-02T12:52:15;102844.22;;;14.37;41.31
13952;BME280;39535;52.192;9.886;2023-04-02T12:54:44;102909.09;;;14.52;41.08
13952;BME280;39535;52.192;9.886;2023-04-02T12:57:34;102964.53;;;14.97;42.69
13952;BME280;39535;52.192;9.886;2023-04-02T13:00:28;102958.50;;;15.65;40.63
13952;BME280;39535;52.192;9.886;2023-04-02T13:03:01;102997.13;;;15.68;39.62
13952;BME280;39535;52.192;9.886;2023-04-02T13:05:34;103045.38;;;15.61;40.97
13952;BME280;39535;52.192;9.886;2023-04-02T13:08:02;103038.31;;;15.37;39.95
13952;BME280;39535;52.192;9.886;2023-04-02T13:10:30;103052.28;;;15.17;38.98
13952;BME280;39535;52.192;9.886;2023-04-02T13:12:57;103073.28;;;15.05;39.71
13952;BME280;39535;52.192;9.886;2023-04-02T13:15:27;103064.31;;;14.72;39.05
13952;BME280;39535;52.192;9.886;2023-04-02T13:18:06;103094.53;;;14.16;40.88
13952;BME280;39535;52.192;9.886;2023-04-02T13:20:40;103063.75;;;13.98;40.48
13952;BME280;39535;52.192;9.886;2023-04-02T13:23:31;103053.69;;;13.57;40.57
13952;BME280;39535;52.192;9.886;2023-04-02T13:25:59;103041.41;;;13.53;43.73
13952;BME280;39535;52.192;9.886;2023-04-02T13:28:27;102995.97;;;13.54;43.47
13952;BME280;39535;52.192;9.886;2023-04-02T13:30:54;102961.69;;;13.42;42.94
13952;BME280;39535;52.192;9.886;2023-04-02T13:33:22;102953.97;;;13.57;44.96
13952;BME280;39535;52.192;9.886;2023-04-02T13:35:48;102901.78;;;13.99;43.48
13952;BME280;39535;52.192;9.886;2023-04-02T13:38:15;102867.81;;;14.26;42.21